Catoosa, Oklahoma
Current Conditions -  °F | °C
As of 5:11 AM on Friday 19 Dec 2014 (Local Time) from KTUL Reporting Station
Haze Haze  
Wind Chill: 32°   Ceiling: 500
Heat Index: 37°   Visibility: 6mi
Dew Point: 36°   Wind: 7mph
Humidity: 96%   Direction: 350°N
Pressure: 30.23"   Gusts: NA
Location:  36.19°N, 95.75°W
Report Text: KTUL 191111Z 35006KT 6SM BR OVC005 03/02 A3023 RMK AO2 T00280022
Loading
Personal Weather Stations






























Interactive Weather Map New forecast layout! Learn more

10-Day Weather Forecast

Advertisements
Track Severe Weather on mobile